Thomson Majesty — 9HA2188 — position and weather

sailwx.info

Track history (hours):
 
Tides and Currents Weather Stations Pressure Air Temp Water Temp Dewpoint Dewpoint Depression Visibility Wind Speed Wind Dir Waves Ship Positions

Thomson Majesty

Last reported at 2017-Nov-18 15:25 UTC. Time now 2017-Nov-21 08:18 UTC.
Position N 37°32' W 001°02'.

Length 207 m; draft 6.2 m.

Type: Ship. MMSI: 248124000.

Date/timePositionNaut miles runAvg speedWind from/ knotsBaromVisibWave heightAir tempDewpointWater temp
2017-Nov-18 15:25N 37°32' W 001°02'510.5
2017-Nov-18 14:59N 37°36' W 000°59'0 0.0
2017-Nov-18 06:22N 37°36' W 000°59'3 6.3
2017-Nov-18 05:51N 37°33' W 000°58'616.1
2017-Nov-18 05:30N 37°32' W 000°51'713.7
2017-Nov-18 05:00N 37°33' W 000°43'611.4
2017-Nov-18 04:30N 37°33' W 000°36'612.5
2017-Nov-18 04:00N 37°38' W 000°31'612.3
2017-Nov-18 03:30N 37°43' W 000°27'612.2
2017-Nov-18 03:00N 37°49' W 000°22'612.2
2017-Nov-18 02:29N 37°54' W 000°18'612.3
2017-Nov-18 02:00N 37°59' W 000°14'193 6.5
2017-Nov-16 20:16N 40°49' E 001°43'312.4
2017-Nov-16 20:00N 40°52' E 001°45'612.4
2017-Nov-16 19:30N 40°57' E 001°51'612.9
2017-Nov-16 19:00N 41°02' E 001°55'612.8
2017-Nov-16 18:30N 41°07' E 002°01'613.0
2017-Nov-16 18:00N 41°12' E 002°06'712.4
2017-Nov-16 17:29N 41°17' E 002°11'1 0.1
2017-Nov-16 06:00N 41°19' E 002°10'712.5
2017-Nov-16 05:28N 41°20' E 002°19'16316.2
2017-Nov-15 19:24N 43°09' E 005°02'616.0
2017-Nov-15 19:00N 43°14' E 005°07'816.9
2017-Nov-15 18:30N 43°20' E 005°15'4 7.8
2017-Nov-15 18:01N 43°20' E 005°20'0 0.1
2017-Nov-15 17:30N 43°20' E 005°20'0 0.0
2017-Nov-15 16:48N 43°20' E 005°20'0 0.0
2017-Nov-15 16:30N 43°20' E 005°20'0 0.0
2017-Nov-15 16:00N 43°20' E 005°20'0 0.0
2017-Nov-15 15:30N 43°20' E 005°20'0 0.0
2017-Nov-15 15:00N 43°20' E 005°20'0 0.0
2017-Nov-15 14:30N 43°20' E 005°20'0 0.0
2017-Nov-15 13:51N 43°20' E 005°20'0 0.0
2017-Nov-15 13:18N 43°20' E 005°20'0 0.0
2017-Nov-15 12:51N 43°20' E 005°20'0 0.0
2017-Nov-15 12:24N 43°20' E 005°20'0 0.0
2017-Nov-15 11:54N 43°20' E 005°20'0 0.0
2017-Nov-15 11:24N 43°20' E 005°20'0 0.0
2017-Nov-15 10:57N 43°20' E 005°20'0 0.0
2017-Nov-15 10:24N 43°20' E 005°20'0 0.0
2017-Nov-15 09:57N 43°20' E 005°20'0 0.0
2017-Nov-15 09:30N 43°20' E 005°20'0 0.0
2017-Nov-15 09:00N 43°20' E 005°20'4 8.2
2017-Nov-15 08:30N 43°19' E 005°15'816.7
2017-Nov-15 08:01N 43°14' E 005°06'1017.6
2017-Nov-15 07:26N 43°09' E 004°54'19816.1
2017-Nov-14 19:11N 40°20' E 002°36'616.6
2017-Nov-14 18:49N 40°14' E 002°33'916.9
2017-Nov-14 18:18N 40°06' E 002°30'3615.6
2017-Nov-14 15:58N 39°30' E 002°23'817.5
2017-Nov-14 15:30N 39°26' E 002°32'816.6
2017-Nov-14 15:00N 39°33' E 002°39'1 1.2
2017-Nov-14 14:29N 39°33' E 002°38'0 0.0
2017-Nov-14 13:59N 39°33' E 002°38'0 0.0
2017-Nov-14 13:29N 39°33' E 002°38'0 0.0
2017-Nov-14 12:59N 39°33' E 002°38'0 0.0
2017-Nov-14 12:26N 39°33' E 002°38'0 0.0
2017-Nov-14 11:59N 39°33' E 002°38'0 0.0
2017-Nov-14 11:29N 39°33' E 002°38'0 0.0
2017-Nov-14 10:59N 39°33' E 002°38'0 0.0
2017-Nov-14 10:29N 39°33' E 002°38'0 0.0
2017-Nov-14 09:59N 39°33' E 002°38'0 0.0
2017-Nov-14 09:29N 39°33' E 002°38'0 0.0
2017-Nov-14 08:59N 39°33' E 002°38'0 0.0
2017-Nov-14 08:26N 39°33' E 002°38'0 0.0
2017-Nov-14 07:59N 39°33' E 002°38'0 0.0
2017-Nov-14 07:29N 39°33' E 002°38'0 0.0
2017-Nov-14 06:59N 39°33' E 002°38'0 0.0
2017-Nov-14 06:29N 39°33' E 002°38'1 1.1
2017-Nov-14 06:00N 39°33' E 002°39'714.8
2017-Nov-14 05:30N 39°26' E 002°33'815.9
2017-Nov-14 05:00N 39°20' E 002°27'815.9
2017-Nov-14 04:30N 39°14' E 002°21'  
2017-Nov-11 06:07N 37°35' W 000°59'2 9.2
2017-Nov-11 05:54N 37°33' W 000°59'512.7
2017-Nov-11 05:30N 37°30' W 000°54'815.2
2017-Nov-11 05:00N 37°31' W 000°45'815.6
2017-Nov-11 04:30N 37°34' W 000°36'815.6
2017-Nov-11 04:00N 37°37' W 000°27'815.6
2017-Nov-11 03:30N 37°41' W 000°19'11012.4
2017-Nov-10 18:36N 38°51' E 001°30'4 3.5
2017-Nov-10 17:26N 38°54' E 001°27'0 0.0
2017-Nov-10 15:20N 38°54' E 001°27'0 0.0
2017-Nov-10 14:57N 38°54' E 001°27'0 0.0
2017-Nov-10 14:09N 38°54' E 001°27'0 0.0
2017-Nov-10 13:59N 38°54' E 001°27'0 0.0
2017-Nov-10 13:14N 38°54' E 001°27'0 0.0
2017-Nov-10 11:17N 38°54' E 001°27'0 0.0
2017-Nov-10 10:14N 38°54' E 001°27'0 0.0
2017-Nov-10 09:57N 38°54' E 001°27'0 0.7
2017-Nov-10 09:28N 38°54' E 001°27'4 9.6
2017-Nov-10 09:00N 38°53' E 001°32'5 9.6
2017-Nov-10 08:30N 38°52' E 001°38'58815.9
2017-Nov-08 19:26N 36°26' E 013°38'716.9
2017-Nov-08 19:00N 36°22' E 013°46'816.9
2017-Nov-08 18:31N 36°18' E 013°55'917.0
2017-Nov-08 18:00N 36°14' E 014°04'816.8
2017-Nov-08 17:30N 36°10' E 014°14'816.6
2017-Nov-08 17:00N 36°06' E 014°22'816.2
2017-Nov-08 16:30N 36°01' E 014°30'713.9
2017-Nov-08 16:00N 35°54' E 014°32'  
Track history (hours):
 
Tides and Currents Weather Stations Pressure Air Temp Water Temp Dewpoint Dewpoint Depression Visibility Wind Speed Wind Dir Waves Ship Positions

Thomson Majesty

Last reported at 2017-Nov-18 15:25 UTC. Time now 2017-Nov-21 08:18 UTC.
Position N 37°32' W 001°02'.

Length 207 m; draft 6.2 m.

Type: Ship. MMSI: 248124000.

Date/timePositionNaut miles runAvg speedWind from/ knotsBaromVisibWave heightAir tempDewpointWater temp
2017-Nov-18 15:25N 37°32' W 001°02'510.5
2017-Nov-18 14:59N 37°36' W 000°59'0 0.0
2017-Nov-18 06:22N 37°36' W 000°59'3 6.3
2017-Nov-18 05:51N 37°33' W 000°58'616.1
2017-Nov-18 05:30N 37°32' W 000°51'713.7
2017-Nov-18 05:00N 37°33' W 000°43'611.4
2017-Nov-18 04:30N 37°33' W 000°36'612.5
2017-Nov-18 04:00N 37°38' W 000°31'612.3
2017-Nov-18 03:30N 37°43' W 000°27'612.2
2017-Nov-18 03:00N 37°49' W 000°22'612.2
2017-Nov-18 02:29N 37°54' W 000°18'612.3
2017-Nov-18 02:00N 37°59' W 000°14'193 6.5
2017-Nov-16 20:16N 40°49' E 001°43'312.4
2017-Nov-16 20:00N 40°52' E 001°45'612.4
2017-Nov-16 19:30N 40°57' E 001°51'612.9
2017-Nov-16 19:00N 41°02' E 001°55'612.8
2017-Nov-16 18:30N 41°07' E 002°01'613.0
2017-Nov-16 18:00N 41°12' E 002°06'712.4
2017-Nov-16 17:29N 41°17' E 002°11'1 0.1
2017-Nov-16 06:00N 41°19' E 002°10'712.5
2017-Nov-16 05:28N 41°20' E 002°19'16316.2
2017-Nov-15 19:24N 43°09' E 005°02'616.0
2017-Nov-15 19:00N 43°14' E 005°07'816.9
2017-Nov-15 18:30N 43°20' E 005°15'4 7.8
2017-Nov-15 18:01N 43°20' E 005°20'0 0.1
2017-Nov-15 17:30N 43°20' E 005°20'0 0.0
2017-Nov-15 16:48N 43°20' E 005°20'0 0.0
2017-Nov-15 16:30N 43°20' E 005°20'0 0.0
2017-Nov-15 16:00N 43°20' E 005°20'0 0.0
2017-Nov-15 15:30N 43°20' E 005°20'0 0.0
2017-Nov-15 15:00N 43°20' E 005°20'0 0.0
2017-Nov-15 14:30N 43°20' E 005°20'0 0.0
2017-Nov-15 13:51N 43°20' E 005°20'0 0.0
2017-Nov-15 13:18N 43°20' E 005°20'0 0.0
2017-Nov-15 12:51N 43°20' E 005°20'0 0.0
2017-Nov-15 12:24N 43°20' E 005°20'0 0.0
2017-Nov-15 11:54N 43°20' E 005°20'0 0.0
2017-Nov-15 11:24N 43°20' E 005°20'0 0.0
2017-Nov-15 10:57N 43°20' E 005°20'0 0.0
2017-Nov-15 10:24N 43°20' E 005°20'0 0.0
2017-Nov-15 09:57N 43°20' E 005°20'0 0.0
2017-Nov-15 09:30N 43°20' E 005°20'0 0.0
2017-Nov-15 09:00N 43°20' E 005°20'4 8.2
2017-Nov-15 08:30N 43°19' E 005°15'816.7
2017-Nov-15 08:01N 43°14' E 005°06'1017.6
2017-Nov-15 07:26N 43°09' E 004°54'19816.1
2017-Nov-14 19:11N 40°20' E 002°36'616.6
2017-Nov-14 18:49N 40°14' E 002°33'916.9
2017-Nov-14 18:18N 40°06' E 002°30'3615.6
2017-Nov-14 15:58N 39°30' E 002°23'817.5
2017-Nov-14 15:30N 39°26' E 002°32'816.6
2017-Nov-14 15:00N 39°33' E 002°39'1 1.2
2017-Nov-14 14:29N 39°33' E 002°38'0 0.0
2017-Nov-14 13:59N 39°33' E 002°38'0 0.0
2017-Nov-14 13:29N 39°33' E 002°38'0 0.0
2017-Nov-14 12:59N 39°33' E 002°38'0 0.0
2017-Nov-14 12:26N 39°33' E 002°38'0 0.0
2017-Nov-14 11:59N 39°33' E 002°38'0 0.0
2017-Nov-14 11:29N 39°33' E 002°38'0 0.0
2017-Nov-14 10:59N 39°33' E 002°38'0 0.0
2017-Nov-14 10:29N 39°33' E 002°38'0 0.0
2017-Nov-14 09:59N 39°33' E 002°38'0 0.0
2017-Nov-14 09:29N 39°33' E 002°38'0 0.0
2017-Nov-14 08:59N 39°33' E 002°38'0 0.0
2017-Nov-14 08:26N 39°33' E 002°38'0 0.0
2017-Nov-14 07:59N 39°33' E 002°38'0 0.0
2017-Nov-14 07:29N 39°33' E 002°38'0 0.0
2017-Nov-14 06:59N 39°33' E 002°38'0 0.0
2017-Nov-14 06:29N 39°33' E 002°38'1 1.1
2017-Nov-14 06:00N 39°33' E 002°39'714.8
2017-Nov-14 05:30N 39°26' E 002°33'815.9
2017-Nov-14 05:00N 39°20' E 002°27'815.9
2017-Nov-14 04:30N 39°14' E 002°21'  
2017-Nov-11 06:07N 37°35' W 000°59'2 9.2
2017-Nov-11 05:54N 37°33' W 000°59'512.7
2017-Nov-11 05:30N 37°30' W 000°54'815.2
2017-Nov-11 05:00N 37°31' W 000°45'815.6
2017-Nov-11 04:30N 37°34' W 000°36'815.6
2017-Nov-11 04:00N 37°37' W 000°27'815.6
2017-Nov-11 03:30N 37°41' W 000°19'11012.4
2017-Nov-10 18:36N 38°51' E 001°30'4 3.5
2017-Nov-10 17:26N 38°54' E 001°27'0 0.0
2017-Nov-10 15:20N 38°54' E 001°27'0 0.0
2017-Nov-10 14:57N 38°54' E 001°27'0 0.0
2017-Nov-10 14:09N 38°54' E 001°27'0 0.0
2017-Nov-10 13:59N 38°54' E 001°27'0 0.0
2017-Nov-10 13:14N 38°54' E 001°27'0 0.0
2017-Nov-10 11:17N 38°54' E 001°27'0 0.0
2017-Nov-10 10:14N 38°54' E 001°27'0 0.0
2017-Nov-10 09:57N 38°54' E 001°27'0 0.7
2017-Nov-10 09:28N 38°54' E 001°27'4 9.6
2017-Nov-10 09:00N 38°53' E 001°32'5 9.6
2017-Nov-10 08:30N 38°52' E 001°38'58815.9
2017-Nov-08 19:26N 36°26' E 013°38'716.9
2017-Nov-08 19:00N 36°22' E 013°46'816.9
2017-Nov-08 18:31N 36°18' E 013°55'917.0
2017-Nov-08 18:00N 36°14' E 014°04'816.8
2017-Nov-08 17:30N 36°10' E 014°14'816.6
2017-Nov-08 17:00N 36°06' E 014°22'816.2
2017-Nov-08 16:30N 36°01' E 014°30'713.9
2017-Nov-08 16:00N 35°54' E 014°32'  

Dump ship's entire track history